University City, Missouri
Current Conditions -  °F | °C
As of 12:24 PM on Sunday 25 Jan 2015 (Local Time) from KSTL Reporting Station
Light Rain Light Rain  
Wind Chill: 41°   Ceiling: 800
Heat Index: 46°   Visibility: 1.5mi
Dew Point: 43°   Wind: 13mph
Humidity: 87%   Direction: 290°WNW
Pressure: 29.59"   Gusts: NA
Location:  38.66°N, 90.31°W
Report Text: KSTL 251824Z 29011KT 1 1/2SM -RA BR OVC008 08/06 A2959 RMK AO2 P0002
Loading
Personal Weather Stations






























Interactive Weather Map New forecast layout! Learn more

10-Day Weather Forecast

Advertisements
Track Severe Weather on mobile